Time;durP1;ratioP1;P1;durP2;ratioP2;P2;SDS_P1;SDS_P2;PMS_P1;PMS_P2;Temp;Humidity;BMP_temperature;BMP_pressure;BME280_temperature;BME280_humidity;BME280_pressure;Samples;Min_cycle;Max_cycle;Signal;HPM_P1;HPM_P2
2022/06/13 00:00:52;;;;;;;;;;;24.60;46.70;;;;;;6159658;23;20293;-79
2022/06/13 00:03:18;;;;;;;;;;;24.60;46.30;;;;;;6158904;23;20345;-80
2022/06/13 00:05:45;;;;;;;;;;;24.60;46.00;;;;;;6160346;23;20411;-80
2022/06/13 00:08:12;;;;;;;;;;;24.70;45.90;;;;;;6159871;23;19974;-77
2022/06/13 00:10:39;;;;;;;;;;;24.70;45.30;;;;;;6160125;23;19943;-77
2022/06/13 00:13:05;;;;;;;;;;;24.70;44.90;;;;;;6159313;23;19944;-79
2022/06/13 00:15:33;;;;;;;;;;;24.70;44.90;;;;;;6185933;23;19925;-79
2022/06/13 00:18:00;;;;;;;;;;;24.70;44.90;;;;;;6159435;23;19920;-77
2022/06/13 00:20:26;;;;;;;;;;;24.70;44.60;;;;;;6159661;23;19924;-77
2022/06/13 00:22:53;;;;;;;;;;;24.70;44.30;;;;;;6159221;23;19944;-77
2022/06/13 00:25:20;;;;;;;;;;;24.70;44.40;;;;;;6160010;23;19920;-77
2022/06/13 00:27:47;;;;;;;;;;;24.70;44.40;;;;;;6159509;23;19920;-77
2022/06/13 00:30:13;;;;;;;;;;;24.70;44.60;;;;;;6159648;23;19920;-79
2022/06/13 00:32:40;;;;;;;;;;;24.70;43.80;;;;;;6186035;23;19927;-80
2022/06/13 00:35:07;;;;;;;;;;;24.70;43.60;;;;;;6159797;23;19921;-77
2022/06/13 00:37:34;;;;;;;;;;;24.70;43.70;;;;;;6185284;23;19920;-79
2022/06/13 00:40:01;;;;;;;;;;;24.70;43.40;;;;;;6160692;23;19924;-79
2022/06/13 00:42:28;;;;;;;;;;;24.70;43.10;;;;;;6159675;23;19944;-77
2022/06/13 00:45:06;;;;;;;;;;;24.80;42.50;;;;;;6159731;23;19970;-80
2022/06/13 00:47:33;;;;;;;;;;;24.90;42.20;;;;;;6159626;23;19924;-79
2022/06/13 00:50:01;;;;;;;;;;;24.90;41.80;;;;;;6159388;23;19920;-77
2022/06/13 00:52:29;;;;;;;;;;;25.00;43.10;;;;;;6185859;23;20345;-77
2022/06/13 00:54:56;;;;;;;;;;;25.00;43.20;;;;;;6159512;23;20403;-78
2022/06/13 00:57:25;;;;;;;;;;;24.90;43.50;;;;;;6159759;23;20245;-77
2022/06/13 00:59:56;;;;;;;;;;;24.90;44.70;;;;;;6159305;23;20399;-77
2022/06/13 01:02:23;;;;;;;;;;;24.80;45.00;;;;;;6159802;23;19928;-77
2022/06/13 01:04:52;;;;;;;;;;;24.70;45.00;;;;;;6159246;23;19920;-76
2022/06/13 01:07:20;;;;;;;;;;;24.70;45.00;;;;;;6159418;23;19920;-77
2022/06/13 01:12:35;;;;;;;;;;;24.60;45.70;;;;;;6185253;23;19924;-79
2022/06/13 01:15:10;;;;;;;;;;;24.50;46.40;;;;;;6186808;23;20245;-77
2022/06/13 01:17:37;;;;;;;;;;;24.50;46.80;;;;;;6161156;23;19920;-79
2022/06/13 01:20:19;;;;;;;;;;;24.40;47.20;;;;;;6160738;23;19927;-77
2022/06/13 01:22:59;;;;;;;;;;;24.30;47.10;;;;;;6160955;23;19924;-77
2022/06/13 01:25:29;;;;;;;;;;;24.30;47.90;;;;;;6161416;23;19924;-76
2022/06/13 01:28:05;;;;;;;;;;;24.30;50.10;;;;;;6186693;23;20337;-79
2022/06/13 01:30:42;;;;;;;;;;;24.20;51.60;;;;;;6161686;23;19928;-78
2022/06/13 01:33:11;;;;;;;;;;;24.00;52.70;;;;;;6161167;23;19920;-79
2022/06/13 01:35:51;;;;;;;;;;;23.80;53.70;;;;;;6161090;23;19928;-77
2022/06/13 01:38:21;;;;;;;;;;;23.70;53.70;;;;;;6161104;23;20338;-79
2022/06/13 01:40:57;;;;;;;;;;;23.60;55.00;;;;;;6187203;23;19920;-79
2022/06/13 01:43:36;;;;;;;;;;;23.50;55.50;;;;;;6160948;23;19928;-78
2022/06/13 01:46:08;;;;;;;;;;;23.40;56.00;;;;;;6187257;23;20325;-79
2022/06/13 01:48:59;;;;;;;;;;;23.40;55.80;;;;;;6160769;23;19920;-79
2022/06/13 01:51:46;;;;;;;;;;;23.30;56.40;;;;;;6143537;23;19920;-76
2022/06/13 01:54:34;;;;;;;;;;;23.20;57.90;;;;;;6160682;23;19924;-79
2022/06/13 01:57:09;;;;;;;;;;;23.10;58.60;;;;;;6160991;23;19920;-79
2022/06/13 01:59:52;;;;;;;;;;;23.00;58.60;;;;;;6186921;23;19924;-76
2022/06/13 02:02:31;;;;;;;;;;;22.80;58.10;;;;;;6161219;23;19986;-77
2022/06/13 02:05:21;;;;;;;;;;;22.80;58.60;;;;;;6160576;23;19924;-76
2022/06/13 02:07:50;;;;;;;;;;;22.70;58.90;;;;;;6158749;23;19951;-76
2022/06/13 02:10:40;;;;;;;;;;;22.70;59.30;;;;;;6164988;23;19948;-79
2022/06/13 02:13:10;;;;;;;;;;;22.60;59.40;;;;;;6159732;23;20261;-79
2022/06/13 02:15:40;;;;;;;;;;;22.50;59.00;;;;;;6161125;23;19920;-77
2022/06/13 02:18:10;;;;;;;;;;;22.40;58.90;;;;;;6160758;23;19999;-79
2022/06/13 02:20:38;;;;;;;;;;;22.40;59.30;;;;;;6187057;23;19929;-76
2022/06/13 02:23:10;;;;;;;;;;;22.30;58.90;;;;;;6186919;23;19920;-79
2022/06/13 02:25:45;;;;;;;;;;;22.20;59.70;;;;;;6159931;23;19921;-79
2022/06/13 02:28:26;;;;;;;;;;;22.20;60.80;;;;;;6160440;23;19975;-77
2022/06/13 02:31:01;;;;;;;;;;;22.20;59.90;;;;;;6161161;23;19927;-76
2022/06/13 02:33:30;;;;;;;;;;;22.10;60.50;;;;;;6160389;23;19991;-79
2022/06/13 02:35:59;;;;;;;;;;;22.10;60.00;;;;;;6160012;23;19960;-79
2022/06/13 02:38:32;;;;;;;;;;;22.00;60.00;;;;;;6160713;23;19920;-80
2022/06/13 02:41:07;;;;;;;;;;;22.00;60.10;;;;;;6160827;23;19924;-77
2022/06/13 02:43:38;;;;;;;;;;;22.00;60.90;;;;;;6186531;23;19959;-76
2022/06/13 02:46:26;;;;;;;;;;;21.90;61.60;;;;;;6160760;23;20253;-78
2022/06/13 02:49:06;;;;;;;;;;;21.80;62.20;;;;;;6159920;23;19921;-77
2022/06/13 02:51:43;;;;;;;;;;;21.70;62.30;;;;;;6186632;23;19920;-80
2022/06/13 02:54:18;;;;;;;;;;;21.60;62.80;;;;;;6160587;23;20252;-79
2022/06/13 02:59:55;;;;;;;;;;;21.40;64.00;;;;;;6186326;23;19947;-77
2022/06/13 03:02:27;;;;;;;;;;;21.30;64.30;;;;;;6160473;23;20333;-79
2022/06/13 03:05:00;;;;;;;;;;;21.10;64.60;;;;;;6160121;23;19955;-76
2022/06/13 03:07:32;;;;;;;;;;;21.00;65.80;;;;;;6186490;23;20305;-77
2022/06/13 03:10:01;;;;;;;;;;;20.90;65.80;;;;;;6160142;23;19921;-80
2022/06/13 03:12:36;;;;;;;;;;;20.80;65.70;;;;;;6159797;23;19921;-79
2022/06/13 03:15:05;;;;;;;;;;;20.60;67.10;;;;;;6186114;23;19920;-79
2022/06/13 03:17:33;;;;;;;;;;;20.50;66.90;;;;;;6160604;23;19983;-76
2022/06/13 03:20:08;;;;;;;;;;;20.40;67.30;;;;;;6160309;23;19925;-77
2022/06/13 03:22:50;;;;;;;;;;;20.30;67.00;;;;;;6186470;23;19924;-80
2022/06/13 03:25:26;;;;;;;;;;;20.30;67.00;;;;;;6186046;23;19983;-80
2022/06/13 03:28:09;;;;;;;;;;;20.30;67.20;;;;;;6186780;23;19920;-79
2022/06/13 03:30:41;;;;;;;;;;;20.20;69.30;;;;;;6185958;23;19920;-79
2022/06/13 03:36:03;;;;;;;;;;;20.20;68.60;;;;;;6186474;23;20020;-79
2022/06/13 03:38:36;;;;;;;;;;;20.00;68.50;;;;;;6159906;23;19967;-79
2022/06/13 03:41:04;;;;;;;;;;;20.00;69.60;;;;;;6160292;23;19924;-79
2022/06/13 03:43:44;;;;;;;;;;;19.90;69.70;;;;;;6186115;23;19944;-75
2022/06/13 03:46:30;;;;;;;;;;;19.80;69.80;;;;;;6160393;23;19920;-79
2022/06/13 03:49:00;;;;;;;;;;;19.80;70.00;;;;;;6185765;23;20452;-76
2022/06/13 03:51:31;;;;;;;;;;;19.80;70.00;;;;;;6159576;23;19920;-80
2022/06/13 03:54:02;;;;;;;;;;;19.80;71.60;;;;;;6160319;23;19983;-80
2022/06/13 03:56:35;;;;;;;;;;;19.70;71.90;;;;;;6186008;23;19920;-78
2022/06/13 03:59:05;;;;;;;;;;;19.70;71.20;;;;;;6186208;23;19924;-79
2022/06/13 04:01:38;;;;;;;;;;;19.80;72.20;;;;;;6185972;23;19967;-76
2022/06/13 04:04:05;;;;;;;;;;;19.80;71.00;;;;;;6159504;23;19924;-76
2022/06/13 04:06:31;;;;;;;;;;;19.70;73.10;;;;;;6159637;23;19947;-79
2022/06/13 04:09:00;;;;;;;;;;;19.70;72.40;;;;;;6159941;23;19931;-76
2022/06/13 04:11:30;;;;;;;;;;;19.70;73.10;;;;;;6159171;23;19974;-80
2022/06/13 04:14:03;;;;;;;;;;;19.70;71.90;;;;;;6159317;23;19920;-76
2022/06/13 04:16:47;;;;;;;;;;;19.70;72.60;;;;;;6185920;23;19924;-79
2022/06/13 04:19:26;;;;;;;;;;;19.70;72.40;;;;;;6186147;23;20301;-79
2022/06/13 04:21:59;;;;;;;;;;;19.70;71.50;;;;;;6160064;23;19924;-77
2022/06/13 04:24:54;;;;;;;;;;;19.80;71.20;;;;;;6159606;23;19924;-76
2022/06/13 04:27:23;;;;;;;;;;;19.80;71.40;;;;;;6159877;23;19920;-79
2022/06/13 04:29:56;;;;;;;;;;;19.80;71.90;;;;;;6159426;23;20260;-80
2022/06/13 04:32:28;;;;;;;;;;;19.80;71.70;;;;;;6159414;23;20415;-79
2022/06/13 04:34:57;;;;;;;;;;;19.70;72.00;;;;;;6159920;23;19924;-76
2022/06/13 04:37:24;;;;;;;;;;;19.70;72.20;;;;;;6185989;23;19924;-76
2022/06/13 04:39:53;;;;;;;;;;;19.60;73.00;;;;;;6159611;23;19920;-77
2022/06/13 04:42:21;;;;;;;;;;;19.60;73.10;;;;;;6160365;23;20301;-79
2022/06/13 04:44:49;;;;;;;;;;;19.60;72.60;;;;;;6185846;23;20003;-76
2022/06/13 04:47:17;;;;;;;;;;;19.70;72.90;;;;;;6159384;23;19920;-76
2022/06/13 04:49:50;;;;;;;;;;;19.70;73.70;;;;;;6155156;23;19925;-77
2022/06/13 04:52:29;;;;;;;;;;;19.70;73.10;;;;;;6155809;23;19979;-79
2022/06/13 04:55:14;;;;;;;;;;;19.80;72.50;;;;;;6156643;23;19921;-77
2022/06/13 04:57:41;;;;;;;;;;;19.90;72.20;;;;;;6156368;23;19925;-77
2022/06/13 05:00:09;;;;;;;;;;;19.90;71.60;;;;;;6156028;23;19921;-79
2022/06/13 05:02:41;;;;;;;;;;;20.00;71.60;;;;;;6156328;23;19967;-76
2022/06/13 05:05:21;;;;;;;;;;;20.10;70.80;;;;;;6156492;23;19921;-76
2022/06/13 05:07:48;;;;;;;;;;;20.10;70.30;;;;;;6156272;23;19920;-79
2022/06/13 05:10:16;;;;;;;;;;;20.20;71.10;;;;;;6157404;23;19944;-77
2022/06/13 05:12:44;;;;;;;;;;;20.20;73.80;;;;;;6156993;23;19983;-77
2022/06/13 05:15:15;;;;;;;;;;;20.30;74.90;;;;;;6155967;23;19971;-76
2022/06/13 05:17:44;;;;;;;;;;;20.20;75.60;;;;;;6155389;23;19921;-79
2022/06/13 05:20:38;;;;;;;;;;;20.20;75.90;;;;;;6155550;23;19920;-79
2022/06/13 05:23:07;;;;;;;;;;;20.20;75.90;;;;;;6154369;23;19995;-76
2022/06/13 05:25:34;;;;;;;;;;;20.30;75.20;;;;;;6155684;23;19952;-76
2022/06/13 05:28:01;;;;;;;;;;;20.30;75.00;;;;;;6155536;23;20309;-76
2022/06/13 05:30:28;;;;;;;;;;;20.40;74.30;;;;;;6154580;23;19956;-79
2022/06/13 05:32:56;;;;;;;;;;;20.50;74.00;;;;;;6153799;23;19925;-76
2022/06/13 05:35:24;;;;;;;;;;;20.50;73.40;;;;;;6154627;23;19920;-79
2022/06/13 05:37:52;;;;;;;;;;;20.60;73.00;;;;;;6157309;23;20330;-76
2022/06/13 05:40:19;;;;;;;;;;;20.70;72.70;;;;;;6155487;23;19925;-79
2022/06/13 05:42:47;;;;;;;;;;;20.70;72.20;;;;;;6157096;23;19920;-79
2022/06/13 05:45:14;;;;;;;;;;;20.80;71.50;;;;;;6156863;23;19924;-76
2022/06/13 05:47:42;;;;;;;;;;;20.90;70.10;;;;;;6155260;23;19921;-76
2022/06/13 05:50:12;;;;;;;;;;;21.00;69.50;;;;;;6154762;23;19924;-79
2022/06/13 05:52:39;;;;;;;;;;;21.10;70.30;;;;;;6155461;23;19924;-79
2022/06/13 05:55:09;;;;;;;;;;;21.20;69.60;;;;;;6155176;23;19955;-79
2022/06/13 05:57:56;;;;;;;;;;;21.30;67.40;;;;;;6154909;23;19948;-76
2022/06/13 06:00:25;;;;;;;;;;;21.40;67.20;;;;;;6156646;23;19920;-79
2022/06/13 06:02:52;;;;;;;;;;;21.50;66.90;;;;;;6155315;23;19955;-79
2022/06/13 06:05:19;;;;;;;;;;;21.50;66.30;;;;;;6156951;23;19931;-76
2022/06/13 06:07:46;;;;;;;;;;;21.60;65.70;;;;;;6157695;23;19983;-76
2022/06/13 06:10:16;;;;;;;;;;;21.70;65.30;;;;;;6157259;23;20301;-79
2022/06/13 06:12:43;;;;;;;;;;;21.80;63.80;;;;;;6157302;23;20265;-79
2022/06/13 06:15:10;;;;;;;;;;;22.00;60.90;;;;;;6157129;23;19924;-76
2022/06/13 06:17:37;;;;;;;;;;;22.00;58.70;;;;;;6154998;23;20238;-77
2022/06/13 06:20:04;;;;;;;;;;;22.20;55.60;;;;;;6155378;23;19921;-79
2022/06/13 06:22:30;;;;;;;;;;;22.30;55.30;;;;;;6156864;23;19920;-76
2022/06/13 06:24:58;;;;;;;;;;;22.40;54.30;;;;;;6155294;23;19920;-76
2022/06/13 06:27:24;;;;;;;;;;;22.50;53.50;;;;;;6156330;23;19936;-76
2022/06/13 06:29:51;;;;;;;;;;;22.60;53.70;;;;;;6155947;23;19924;-79
2022/06/13 06:32:18;;;;;;;;;;;22.80;53.80;;;;;;6155203;23;19991;-76
2022/06/13 06:34:44;;;;;;;;;;;22.90;54.70;;;;;;6170562;23;19924;-76
2022/06/13 06:37:11;;;;;;;;;;;23.00;55.10;;;;;;6184995;23;19960;-78
2022/06/13 06:39:38;;;;;;;;;;;23.10;54.30;;;;;;6186877;23;20245;-79
2022/06/13 06:42:06;;;;;;;;;;;23.20;53.30;;;;;;6186181;23;19928;-79
2022/06/13 06:44:33;;;;;;;;;;;23.30;52.00;;;;;;6184786;23;19940;-76
2022/06/13 06:47:00;;;;;;;;;;;23.50;51.50;;;;;;6185349;23;19935;-76
2022/06/13 06:49:27;;;;;;;;;;;23.60;52.10;;;;;;6186560;23;20411;-77
2022/06/13 06:51:53;;;;;;;;;;;23.70;53.30;;;;;;6185206;23;19920;-77
2022/06/13 06:59:55;;;;;;;;;;;23.90;56.90;;;;;;6186475;23;20305;-79
2022/06/13 07:02:23;;;;;;;;;;;24.00;51.10;;;;;;6185972;23;19920;-78
2022/06/13 07:04:52;;;;;;;;;;;24.20;49.40;;;;;;6185308;23;19924;-79
2022/06/13 07:07:19;;;;;;;;;;;24.30;48.30;;;;;;6186654;23;20338;-79
2022/06/13 07:09:46;;;;;;;;;;;24.40;48.10;;;;;;6186005;23;20404;-78
2022/06/13 07:12:13;;;;;;;;;;;24.50;49.10;;;;;;6186362;23;19920;-77
2022/06/13 07:14:40;;;;;;;;;;;24.70;48.00;;;;;;6184963;23;19975;-78
2022/06/13 07:17:08;;;;;;;;;;;24.90;48.30;;;;;;6184795;23;20365;-76
2022/06/13 07:19:35;;;;;;;;;;;25.10;47.50;;;;;;6184687;23;20300;-77
2022/06/13 07:22:02;;;;;;;;;;;25.20;46.70;;;;;;6184803;23;19986;-78
2022/06/13 07:24:31;;;;;;;;;;;25.40;44.80;;;;;;6184787;23;19924;-79
2022/06/13 07:26:58;;;;;;;;;;;25.50;45.30;;;;;;6184544;23;19924;-77
2022/06/13 07:29:25;;;;;;;;;;;25.70;44.60;;;;;;6184586;23;19924;-77
2022/06/13 07:31:58;;;;;;;;;;;25.90;44.50;;;;;;6184787;23;19920;-76
2022/06/13 07:34:27;;;;;;;;;;;26.00;44.40;;;;;;6184096;23;19995;-79
2022/06/13 07:36:55;;;;;;;;;;;26.20;44.00;;;;;;6186337;23;19920;-80
2022/06/13 07:39:22;;;;;;;;;;;26.40;43.40;;;;;;6184392;23;19970;-77
2022/06/13 07:41:49;;;;;;;;;;;26.60;44.10;;;;;;6184384;23;19920;-79
2022/06/13 07:44:19;;;;;;;;;;;26.80;42.70;;;;;;6186134;23;19967;-77
2022/06/13 07:46:46;;;;;;;;;;;26.80;42.40;;;;;;6185183;23;19965;-80
2022/06/13 07:49:14;;;;;;;;;;;26.90;42.40;;;;;;6184692;23;19921;-77
2022/06/13 07:51:40;;;;;;;;;;;27.00;41.80;;;;;;6184281;23;19924;-78
2022/06/13 07:54:07;;;;;;;;;;;27.00;42.50;;;;;;6184435;23;19920;-78
2022/06/13 07:56:35;;;;;;;;;;;27.20;43.00;;;;;;6184334;23;19995;-78
2022/06/13 07:59:03;;;;;;;;;;;27.30;44.20;;;;;;6183935;23;19920;-77
2022/06/13 08:01:29;;;;;;;;;;;27.40;44.20;;;;;;6184115;23;20372;-77
2022/06/13 08:03:56;;;;;;;;;;;27.40;44.00;;;;;;6185760;23;20226;-77
2022/06/13 08:06:24;;;;;;;;;;;27.40;44.60;;;;;;6184075;23;19924;-79
2022/06/13 08:08:51;;;;;;;;;;;27.40;45.30;;;;;;6185451;23;19970;-77
2022/06/13 08:11:22;;;;;;;;;;;27.50;45.20;;;;;;6184357;23;19982;-79
2022/06/13 08:13:49;;;;;;;;;;;27.40;44.80;;;;;;6184785;23;19995;-77
2022/06/13 08:16:16;;;;;;;;;;;27.50;45.90;;;;;;6185340;23;19971;-79
2022/06/13 08:18:43;;;;;;;;;;;27.70;45.60;;;;;;6184305;23;19950;-78
2022/06/13 08:21:11;;;;;;;;;;;27.80;45.40;;;;;;6184927;23;19924;-79
2022/06/13 08:23:38;;;;;;;;;;;27.90;44.20;;;;;;6159162;23;20297;-79
2022/06/13 08:26:04;;;;;;;;;;;28.10;44.60;;;;;;6184730;23;20300;-77
2022/06/13 08:28:32;;;;;;;;;;;28.20;43.40;;;;;;6183801;23;19935;-77
2022/06/13 08:31:10;;;;;;;;;;;28.30;43.60;;;;;;6184092;23;19935;-80
2022/06/13 08:33:37;;;;;;;;;;;28.40;43.90;;;;;;6186556;23;20341;-79
2022/06/13 08:36:05;;;;;;;;;;;28.50;43.40;;;;;;6189073;23;20357;-79
2022/06/13 08:38:32;;;;;;;;;;;28.70;43.70;;;;;;6215947;23;19924;-77
2022/06/13 08:41:08;;;;;;;;;;;28.90;43.80;;;;;;6189098;23;19924;-79
2022/06/13 08:43:48;;;;;;;;;;;29.00;43.60;;;;;;6189490;23;20336;-79
2022/06/13 08:46:33;;;;;;;;;;;29.10;43.30;;;;;;6189332;23;20349;-79
2022/06/13 08:49:14;;;;;;;;;;;29.30;44.20;;;;;;6215415;23;20230;-79
2022/06/13 08:51:45;;;;;;;;;;;29.50;43.70;;;;;;6189306;23;19924;-78
2022/06/13 08:54:14;;;;;;;;;;;29.70;42.50;;;;;;6189165;23;19920;-77
2022/06/13 08:56:43;;;;;;;;;;;29.60;41.80;;;;;;6188898;23;19971;-79
2022/06/13 08:59:24;;;;;;;;;;;29.50;42.80;;;;;;6189146;23;19924;-77
2022/06/13 09:02:01;;;;;;;;;;;29.50;43.80;;;;;;6188867;23;20345;-77
2022/06/13 09:04:34;;;;;;;;;;;29.50;42.30;;;;;;6189507;23;19927;-78
2022/06/13 09:07:20;;;;;;;;;;;29.60;43.10;;;;;;6189302;23;19924;-79
2022/06/13 09:09:53;;;;;;;;;;;29.70;43.00;;;;;;6189093;23;20264;-80
2022/06/13 09:12:30;;;;;;;;;;;29.70;42.30;;;;;;6189130;23;19924;-78
2022/06/13 09:15:01;;;;;;;;;;;29.80;42.20;;;;;;6215030;23;19924;-79
2022/06/13 09:17:52;;;;;;;;;;;29.90;43.10;;;;;;6189479;23;20365;-77
2022/06/13 09:20:25;;;;;;;;;;;30.00;42.40;;;;;;6171173;23;19920;-78
2022/06/13 09:22:55;;;;;;;;;;;30.10;41.70;;;;;;6188878;23;19920;-77
2022/06/13 09:25:22;;;;;;;;;;;30.10;40.60;;;;;;6189162;23;19920;-77
2022/06/13 09:28:09;;;;;;;;;;;30.20;40.40;;;;;;6214823;23;19990;-78
2022/06/13 09:30:43;;;;;;;;;;;30.30;39.60;;;;;;6168320;23;19928;-80
2022/06/13 09:33:30;;;;;;;;;;;30.40;39.10;;;;;;6189084;23;19924;-77
2022/06/13 09:36:17;;;;;;;;;;;30.40;38.90;;;;;;6216198;23;19920;-79
2022/06/13 09:38:50;;;;;;;;;;;30.40;36.70;;;;;;6166511;23;19924;-81
2022/06/13 09:41:28;;;;;;;;;;;30.40;37.40;;;;;;6191096;23;19951;-78
2022/06/13 09:44:10;;;;;;;;;;;30.50;36.50;;;;;;6190826;23;19974;-78
2022/06/13 09:46:42;;;;;;;;;;;30.60;36.40;;;;;;6190673;23;19920;-79
2022/06/13 09:49:15;;;;;;;;;;;30.60;34.80;;;;;;6216880;23;19924;-78
2022/06/13 09:51:45;;;;;;;;;;;30.60;35.50;;;;;;6217503;23;20361;-78
2022/06/13 09:54:12;;;;;;;;;;;30.70;34.80;;;;;;6190597;23;19974;-80
2022/06/13 09:57:01;;;;;;;;;;;30.80;35.00;;;;;;6217184;23;19945;-80
2022/06/13 09:59:34;;;;;;;;;;;31.00;35.30;;;;;;6190929;23;19920;-78
2022/06/13 10:02:16;;;;;;;;;;;31.10;32.90;;;;;;6216611;23;20329;-80
2022/06/13 10:04:48;;;;;;;;;;;31.20;33.10;;;;;;6190970;23;19920;-80
2022/06/13 10:07:23;;;;;;;;;;;31.20;31.00;;;;;;6186894;22;19935;-77
2022/06/13 10:09:50;;;;;;;;;;;31.20;33.50;;;;;;6187147;23;20300;-78
2022/06/13 10:12:27;;;;;;;;;;;31.20;32.60;;;;;;6160803;23;19970;-81
2022/06/13 10:15:13;;;;;;;;;;;31.30;33.10;;;;;;6160897;23;19931;-78
2022/06/13 10:17:52;;;;;;;;;;;31.50;32.50;;;;;;6160515;23;19924;-81
2022/06/13 10:20:28;;;;;;;;;;;31.60;32.00;;;;;;6160722;23;19947;-80
2022/06/13 10:23:02;;;;;;;;;;;31.60;32.60;;;;;;6186686;23;20384;-80
2022/06/13 10:25:29;;;;;;;;;;;31.70;32.40;;;;;;6186619;23;19924;-77
2022/06/13 10:27:55;;;;;;;;;;;31.70;31.80;;;;;;6160358;23;19975;-81
2022/06/13 10:30:34;;;;;;;;;;;31.70;32.10;;;;;;6186883;23;20297;-78
2022/06/13 10:33:01;;;;;;;;;;;31.80;32.00;;;;;;6186494;23;19947;-82
2022/06/13 10:35:37;;;;;;;;;;;31.80;32.10;;;;;;6160666;23;19921;-77
2022/06/13 10:38:09;;;;;;;;;;;31.80;31.10;;;;;;6160374;23;19979;-78
2022/06/13 10:40:36;;;;;;;;;;;31.80;32.40;;;;;;6160197;23;19924;-81
2022/06/13 10:43:03;;;;;;;;;;;31.80;31.70;;;;;;6160224;23;19920;-78
2022/06/13 10:45:33;;;;;;;;;;;31.80;31.70;;;;;;6160729;23;19927;-80
2022/06/13 10:48:19;;;;;;;;;;;31.80;31.60;;;;;;6159914;23;19951;-80
2022/06/13 10:50:53;;;;;;;;;;;32.00;32.00;;;;;;6160081;23;20304;-78
2022/06/13 10:53:30;;;;;;;;;;;32.20;31.80;;;;;;6160320;23;19974;-78
2022/06/13 10:55:58;;;;;;;;;;;32.30;30.90;;;;;;6160689;23;19971;-80
2022/06/13 10:58:26;;;;;;;;;;;32.30;30.30;;;;;;6160537;23;19932;-78
2022/06/13 11:01:02;;;;;;;;;;;32.10;31.30;;;;;;6159698;23;19951;-78
2022/06/13 11:03:29;;;;;;;;;;;32.00;31.30;;;;;;6186537;23;19999;-80
2022/06/13 11:06:04;;;;;;;;;;;31.90;31.40;;;;;;6160036;23;19920;-79
2022/06/13 11:08:31;;;;;;;;;;;32.00;32.70;;;;;;6160247;23;19921;-78
2022/06/13 11:11:02;;;;;;;;;;;32.10;31.60;;;;;;6161438;23;19921;-80
2022/06/13 11:13:36;;;;;;;;;;;32.30;31.10;;;;;;6160233;23;19928;-79
2022/06/13 11:24:46;;;;;;;;;;;33.00;30.00;;;;;;6184578;23;20253;-79
2022/06/13 11:27:41;;;;;;;;;;;32.90;29.70;;;;;;6160778;23;19921;-80
2022/06/13 11:30:17;;;;;;;;;;;32.80;32.30;;;;;;6159800;23;19920;-77
2022/06/13 11:33:03;;;;;;;;;;;32.90;32.60;;;;;;6158993;23;19928;-79
2022/06/13 11:35:32;;;;;;;;;;;33.10;32.10;;;;;;6158428;23;19931;-78
2022/06/13 11:38:14;;;;;;;;;;;33.10;31.90;;;;;;6159668;23;19924;-77
2022/06/13 11:40:42;;;;;;;;;;;33.10;32.50;;;;;;6185605;23;20341;-81
2022/06/13 11:43:32;;;;;;;;;;;33.30;30.90;;;;;;6159884;23;19975;-77
2022/06/13 11:46:01;;;;;;;;;;;33.40;30.60;;;;;;6141625;23;19925;-82
2022/06/13 11:48:28;;;;;;;;;;;33.50;30.20;;;;;;6159035;23;19974;-82
2022/06/13 11:50:56;;;;;;;;;;;33.40;29.50;;;;;;6184981;23;19920;-78
2022/06/13 11:53:38;;;;;;;;;;;33.40;29.50;;;;;;6159089;23;20337;-77
2022/06/13 11:56:08;;;;;;;;;;;33.50;29.60;;;;;;6158489;23;19924;-77
2022/06/13 11:58:38;;;;;;;;;;;33.40;29.70;;;;;;6159134;23;20024;-82
2022/06/13 12:01:20;;;;;;;;;;;33.40;29.70;;;;;;6159036;23;20360;-79
2022/06/13 12:03:56;;;;;;;;;;;33.50;29.30;;;;;;6158728;23;19924;-78
2022/06/13 12:06:23;;;;;;;;;;;33.60;29.20;;;;;;6160256;23;19974;-83
2022/06/13 12:08:58;;;;;;;;;;;33.80;30.00;;;;;;6159456;23;19924;-82
2022/06/13 12:11:33;;;;;;;;;;;34.00;29.90;;;;;;6159938;23;19974;-78
2022/06/13 12:14:01;;;;;;;;;;;34.20;29.40;;;;;;6159726;23;19931;-81
2022/06/13 12:16:33;;;;;;;;;;;34.30;28.70;;;;;;6159594;23;19920;-78
2022/06/13 12:19:15;;;;;;;;;;;34.20;28.50;;;;;;6159620;23;20256;-81
2022/06/13 12:21:49;;;;;;;;;;;34.20;29.30;;;;;;6159489;23;19927;-80
2022/06/13 12:24:16;;;;;;;;;;;34.20;29.80;;;;;;6160126;23;20373;-78
2022/06/13 12:26:46;;;;;;;;;;;34.30;29.60;;;;;;6159990;23;19920;-80
2022/06/13 12:29:31;;;;;;;;;;;34.30;29.70;;;;;;6161047;23;19920;-82
2022/06/13 12:32:04;;;;;;;;;;;34.30;29.10;;;;;;6159933;23;19929;-77
2022/06/13 12:34:51;;;;;;;;;;;34.20;29.10;;;;;;6158700;23;19955;-77
2022/06/13 12:37:21;;;;;;;;;;;34.30;28.20;;;;;;6085574;23;19920;-79
2022/06/13 12:40:06;;;;;;;;;;;34.40;28.70;;;;;;6158920;23;19931;-79
2022/06/13 12:42:45;;;;;;;;;;;34.40;29.20;;;;;;6158910;23;19924;-78
2022/06/13 12:45:26;;;;;;;;;;;34.50;29.20;;;;;;6158518;23;19974;-78
2022/06/13 12:47:53;;;;;;;;;;;34.60;29.30;;;;;;6158942;23;19990;-77
2022/06/13 12:50:42;;;;;;;;;;;34.70;28.50;;;;;;6158896;23;19962;-81
2022/06/13 12:53:28;;;;;;;;;;;34.70;28.10;;;;;;6159177;23;20299;-78
2022/06/13 12:55:58;;;;;;;;;;;34.80;28.40;;;;;;6159187;23;20296;-79
2022/06/13 12:58:41;;;;;;;;;;;34.70;27.40;;;;;;6173484;23;20238;-81
2022/06/13 13:01:14;;;;;;;;;;;34.70;27.80;;;;;;6215254;23;19971;-82
2022/06/13 13:04:02;;;;;;;;;;;34.70;27.90;;;;;;6188411;23;19920;-82
2022/06/13 13:06:50;;;;;;;;;;;34.90;28.50;;;;;;6163946;23;19920;-77
2022/06/13 13:09:17;;;;;;;;;;;35.00;27.80;;;;;;6188595;23;19920;-78
2022/06/13 13:11:56;;;;;;;;;;;35.00;27.10;;;;;;6190530;23;19919;-78
2022/06/13 13:14:26;;;;;;;;;;;34.80;27.70;;;;;;6190410;23;19920;-78
2022/06/13 13:17:00;;;;;;;;;;;34.90;28.00;;;;;;6190038;23;19986;-78
2022/06/13 13:19:36;;;;;;;;;;;34.90;28.50;;;;;;6189704;23;19920;-77
2022/06/13 13:22:03;;;;;;;;;;;35.10;27.80;;;;;;6216566;23;20250;-78
2022/06/13 13:24:35;;;;;;;;;;;35.00;27.90;;;;;;6189968;23;19924;-82
2022/06/13 13:27:04;;;;;;;;;;;35.10;27.80;;;;;;6189544;23;20424;-81
2022/06/13 13:29:41;;;;;;;;;;;35.10;27.20;;;;;;6190665;23;19920;-81
2022/06/13 13:32:20;;;;;;;;;;;35.20;26.60;;;;;;6189648;23;19920;-77
2022/06/13 13:34:56;;;;;;;;;;;35.20;27.20;;;;;;6216861;23;20419;-77
2022/06/13 13:37:31;;;;;;;;;;;35.10;27.20;;;;;;6188748;23;19920;-78
2022/06/13 13:40:16;;;;;;;;;;;34.90;26.90;;;;;;6216793;23;20261;-80
2022/06/13 13:43:06;;;;;;;;;;;34.60;27.20;;;;;;6189568;23;19974;-77
2022/06/13 13:45:33;;;;;;;;;;;34.40;27.30;;;;;;6188927;23;19998;-81
2022/06/13 13:48:20;;;;;;;;;;;34.30;28.10;;;;;;6214888;23;19924;-82
2022/06/13 13:50:50;;;;;;;;;;;34.20;28.10;;;;;;6190036;23;19928;-80
2022/06/13 13:53:19;;;;;;;;;;;34.10;28.80;;;;;;6189961;23;19979;-78
2022/06/13 13:55:55;;;;;;;;;;;33.90;28.80;;;;;;6189866;23;20345;-80
2022/06/13 13:58:28;;;;;;;;;;;33.80;28.80;;;;;;6189849;23;19923;-80
2022/06/13 14:01:02;;;;;;;;;;;33.40;29.80;;;;;;6190374;23;20253;-78
2022/06/13 14:03:52;;;;;;;;;;;33.40;30.50;;;;;;6188006;23;19920;-81
2022/06/13 14:06:23;;;;;;;;;;;33.20;31.00;;;;;;6214366;23;19924;-79
2022/06/13 14:08:50;;;;;;;;;;;33.20;30.40;;;;;;6188577;23;20248;-78
2022/06/13 14:11:17;;;;;;;;;;;33.20;31.20;;;;;;6189930;23;19924;-78
2022/06/13 14:13:45;;;;;;;;;;;33.20;32.30;;;;;;6191000;23;20402;-77
2022/06/13 14:16:30;;;;;;;;;;;33.30;31.80;;;;;;6216908;23;19920;-77
2022/06/13 14:19:12;;;;;;;;;;;33.50;31.80;;;;;;6190602;23;19986;-82
2022/06/13 14:21:59;;;;;;;;;;;33.90;32.20;;;;;;6189795;23;20407;-78
2022/06/13 14:24:28;;;;;;;;;;;34.20;32.90;;;;;;6190310;23;19920;-78
2022/06/13 14:27:06;;;;;;;;;;;34.40;30.30;;;;;;6190327;23;19975;-78
2022/06/13 14:29:36;;;;;;;;;;;34.60;30.30;;;;;;6190370;23;20001;-78
2022/06/13 14:32:07;;;;;;;;;;;34.70;29.30;;;;;;6190677;23;19966;-82
2022/06/13 14:37:43;;;;;;;;;;;34.60;28.30;;;;;;6216367;23;19923;-81
2022/06/13 14:40:13;;;;;;;;;;;34.50;28.50;;;;;;6189896;23;19919;-79
2022/06/13 14:42:53;;;;;;;;;;;34.30;29.10;;;;;;6189661;23;20002;-78
2022/06/13 14:45:39;;;;;;;;;;;34.10;29.70;;;;;;6189380;23;19920;-79
2022/06/13 14:48:18;;;;;;;;;;;34.10;29.60;;;;;;6216158;23;20284;-80
2022/06/13 14:50:46;;;;;;;;;;;34.10;30.00;;;;;;6215756;23;20409;-81
2022/06/13 14:53:31;;;;;;;;;;;34.20;30.60;;;;;;6188631;23;19966;-80
2022/06/13 14:56:07;;;;;;;;;;;34.40;31.40;;;;;;6189412;23;19928;-82
2022/06/13 14:58:50;;;;;;;;;;;34.40;30.40;;;;;;6189909;23;19970;-78
2022/06/13 15:01:24;;;;;;;;;;;34.60;30.70;;;;;;6190101;23;19920;-77
2022/06/13 15:03:58;;;;;;;;;;;34.70;29.60;;;;;;6190568;23;19998;-78
2022/06/13 15:06:25;;;;;;;;;;;35.00;29.70;;;;;;6190418;23;19970;-80
2022/06/13 15:09:11;;;;;;;;;;;35.40;28.70;;;;;;6215478;23;19986;-78
2022/06/13 15:11:41;;;;;;;;;;;35.70;27.70;;;;;;6189974;23;20337;-82
2022/06/13 15:14:19;;;;;;;;;;;35.90;28.10;;;;;;6190128;23;19924;-77